Time;durP1;ratioP1;P1;durP2;ratioP2;P2;SDS_P1;SDS_P2;PMS_P1;PMS_P2;Temp;Humidity;BMP_temperature;BMP_pressure;BME280_temperature;BME280_humidity;BME280_pressure;Samples;Min_cycle;Max_cycle;Signal;HPM_P1;HPM_P2
2022/10/06 00:01:37;;;;;;;4.70;0.60;;;15.30;99.90;;;;;;5021655;28;20312;-73
2022/10/06 00:04:04;;;;;;;0.90;0.60;;;15.30;99.90;;;;;;5025174;28;20625;-77
2022/10/06 00:06:30;;;;;;;1.50;0.70;;;15.20;99.90;;;;;;5025084;28;20319;-76
2022/10/06 00:08:57;;;;;;;1.80;0.90;;;15.20;99.90;;;;;;5019420;28;20318;-75
2022/10/06 00:11:26;;;;;;;2.17;1.23;;;15.20;99.90;;;;;;5023689;28;20282;-76
2022/10/06 00:13:53;;;;;;;1.10;0.80;;;15.20;99.90;;;;;;5018673;28;20550;-76
2022/10/06 00:16:34;;;;;;;2.22;0.68;;;15.20;99.90;;;;;;5013408;28;20205;-73
2022/10/06 00:19:01;;;;;;;1.05;0.90;;;15.20;99.90;;;;;;5027075;28;20230;-73
2022/10/06 00:21:44;;;;;;;1.90;1.20;;;15.10;99.90;;;;;;5030972;28;20194;-79
2022/10/06 00:24:11;;;;;;;3.25;0.90;;;15.10;99.90;;;;;;5022413;28;20206;-75
2022/10/06 00:26:45;;;;;;;1.35;0.90;;;15.10;99.90;;;;;;5023004;28;20297;-78
2022/10/06 00:29:13;;;;;;;1.60;1.00;;;15.10;99.90;;;;;;5026034;28;20237;-74
2022/10/06 00:34:38;;;;;;;1.10;0.90;;;15.00;99.90;;;;;;5021863;28;20641;-75
2022/10/06 00:37:05;;;;;;;4.82;2.28;;;15.00;99.90;;;;;;5019068;28;20970;-75
2022/10/06 00:39:31;;;;;;;3.05;1.25;;;14.90;99.90;;;;;;5013997;28;20207;-76
2022/10/06 00:42:00;;;;;;;1.50;1.08;;;14.90;99.90;;;;;;5025520;28;20287;-76
2022/10/06 00:44:27;;;;;;;2.00;1.30;;;14.90;99.90;;;;;;5018775;28;20276;-74
2022/10/06 00:46:54;;;;;;;1.50;1.10;;;14.90;99.90;;;;;;5023795;28;20268;-75
2022/10/06 00:49:25;;;;;;;2.53;1.17;;;14.90;99.90;;;;;;5020955;28;20201;-75
2022/10/06 00:51:54;;;;;;;3.10;1.08;;;15.00;99.90;;;;;;5019304;28;20286;-76
2022/10/06 00:54:22;;;;;;;2.00;1.08;;;14.90;99.90;;;;;;5022018;28;20293;-75
2022/10/06 00:56:50;;;;;;;3.65;1.50;;;14.90;99.90;;;;;;5019859;28;20208;-74
2022/10/06 00:59:19;;;;;;;4.55;1.05;;;14.80;99.90;;;;;;5025193;28;20244;-74
2022/10/06 01:01:52;;;;;;;2.75;1.67;;;14.80;99.90;;;;;;5021152;28;20279;-74
2022/10/06 01:04:20;;;;;;;3.28;0.88;;;14.70;99.90;;;;;;5027269;28;20315;-75
2022/10/06 01:06:51;;;;;;;2.95;0.82;;;14.70;99.90;;;;;;5010482;28;20572;-74
2022/10/06 01:09:21;;;;;;;2.97;0.80;;;14.60;99.90;;;;;;5024738;28;20649;-76
2022/10/06 01:11:51;;;;;;;1.58;1.00;;;14.60;99.90;;;;;;5021035;28;20296;-75
2022/10/06 01:14:22;;;;;;;4.55;1.10;;;14.50;99.90;;;;;;5017804;28;20235;-76
2022/10/06 01:16:54;;;;;;;6.50;1.10;;;14.50;99.90;;;;;;5018310;28;20205;-74
2022/10/06 01:19:37;;;;;;;1.65;1.20;;;14.50;99.90;;;;;;5022164;28;20235;-77
2022/10/06 01:22:07;;;;;;;1.42;0.98;;;14.50;99.90;;;;;;5017125;28;20201;-74
2022/10/06 01:24:49;;;;;;;1.67;1.15;;;14.50;99.90;;;;;;5038844;28;20280;-74
2022/10/06 01:27:17;;;;;;;2.47;0.82;;;14.50;99.90;;;;;;5026417;28;20283;-74
2022/10/06 01:29:44;;;;;;;3.20;1.10;;;14.40;99.90;;;;;;5033763;28;20386;-74
2022/10/06 01:32:11;;;;;;;4.15;1.33;;;14.40;99.90;;;;;;5025055;28;20271;-73
2022/10/06 01:34:38;;;;;;;3.30;1.05;;;14.40;99.90;;;;;;5023464;28;20227;-75
2022/10/06 01:37:05;;;;;;;2.65;0.93;;;14.30;99.90;;;;;;5008575;28;20281;-73
2022/10/06 01:39:32;;;;;;;3.28;1.08;;;14.30;99.90;;;;;;5017342;28;20201;-75
2022/10/06 01:42:00;;;;;;;1.85;1.00;;;14.30;99.90;;;;;;5025956;28;20269;-74
2022/10/06 01:44:35;;;;;;;3.03;1.00;;;14.30;99.90;;;;;;5026598;28;20231;-74
2022/10/06 01:47:05;;;;;;;1.23;0.90;;;14.30;99.90;;;;;;5027661;28;20286;-74
2022/10/06 01:49:33;;;;;;;4.10;1.70;;;14.30;99.90;;;;;;5019067;28;20518;-77
2022/10/06 01:52:00;;;;;;;3.67;0.90;;;14.20;99.90;;;;;;5018339;28;20256;-76
2022/10/06 01:54:27;;;;;;;2.42;1.02;;;14.30;99.90;;;;;;5014798;28;20289;-74
2022/10/06 01:56:54;;;;;;;4.65;1.30;;;14.20;99.90;;;;;;5014954;28;20293;-74
2022/10/06 01:59:23;;;;;;;4.18;1.13;;;14.20;99.90;;;;;;5024853;28;20231;-76
2022/10/06 02:01:50;;;;;;;3.00;1.80;;;14.20;99.90;;;;;;5022059;28;20204;-75
2022/10/06 02:04:18;;;;;;;4.50;1.65;;;14.30;99.90;;;;;;5028615;28;20201;-74
2022/10/06 02:06:44;;;;;;;3.45;1.02;;;14.30;99.90;;;;;;5013952;28;20605;-76
2022/10/06 02:09:11;;;;;;;2.70;1.20;;;14.30;99.90;;;;;;5020497;28;20205;-75
2022/10/06 02:11:38;;;;;;;6.88;1.40;;;14.30;99.90;;;;;;5024967;28;20239;-76
2022/10/06 02:14:05;;;;;;;5.05;1.90;;;14.30;99.90;;;;;;5025670;28;20279;-76
2022/10/06 02:16:34;;;;;;;1.75;1.15;;;14.30;99.90;;;;;;5028652;28;20284;-76
2022/10/06 02:19:02;;;;;;;3.40;1.55;;;14.30;99.90;;;;;;5019991;28;20224;-74
2022/10/06 02:21:28;;;;;;;7.40;2.05;;;14.20;99.90;;;;;;5018629;28;20643;-76
2022/10/06 02:23:56;;;;;;;5.15;1.90;;;14.20;99.90;;;;;;5022575;28;20200;-74
2022/10/06 02:26:22;;;;;;;5.63;1.48;;;14.10;99.90;;;;;;5027632;28;20220;-74
2022/10/06 02:28:49;;;;;;;3.05;1.30;;;14.10;99.90;;;;;;5021778;28;20224;-75
2022/10/06 02:31:17;;;;;;;4.47;1.20;;;14.10;99.90;;;;;;5029497;28;20239;-75
2022/10/06 02:33:45;;;;;;;3.00;0.80;;;14.10;99.90;;;;;;5023877;28;20398;-74
2022/10/06 02:36:14;;;;;;;6.32;1.00;;;14.10;99.90;;;;;;5019526;28;20283;-77
2022/10/06 02:38:41;;;;;;;8.55;1.85;;;14.00;99.90;;;;;;5025401;28;20274;-76
2022/10/06 02:41:09;;;;;;;3.50;1.25;;;14.00;99.90;;;;;;5025210;28;20627;-77
2022/10/06 02:43:36;;;;;;;4.25;1.35;;;13.90;99.90;;;;;;5028574;28;20667;-76
2022/10/06 02:46:06;;;;;;;3.08;1.25;;;13.90;99.90;;;;;;5019717;28;20727;-75
2022/10/06 02:48:33;;;;;;;2.55;0.90;;;13.90;99.90;;;;;;5028274;28;20311;-74
2022/10/06 02:51:06;;;;;;;3.75;1.77;;;13.90;99.90;;;;;;5022003;28;20220;-75
2022/10/06 02:53:35;;;;;;;6.18;2.30;;;13.80;99.90;;;;;;5022107;28;20220;-76
2022/10/06 02:56:05;;;;;;;3.47;1.20;;;13.90;99.90;;;;;;5026890;28;20287;-75
2022/10/06 02:58:33;;;;;;;4.40;1.70;;;13.80;99.90;;;;;;5023325;28;20573;-73
2022/10/06 03:01:04;;;;;;;2.97;1.10;;;13.80;99.90;;;;;;5019161;28;20232;-75
2022/10/06 03:03:33;;;;;;;5.97;1.30;;;13.80;99.90;;;;;;5018971;28;20208;-74
2022/10/06 03:06:20;;;;;;;5.30;1.58;;;13.80;99.90;;;;;;5005870;28;20259;-76
2022/10/06 03:08:48;;;;;;;3.95;0.95;;;13.80;99.90;;;;;;5028177;28;20325;-76
2022/10/06 03:11:15;;;;;;;2.97;1.50;;;13.70;99.90;;;;;;5021343;28;20214;-73
2022/10/06 03:13:42;;;;;;;8.77;1.67;;;13.70;99.90;;;;;;5008368;28;20205;-74
2022/10/06 03:16:14;;;;;;;2.75;1.60;;;13.70;99.90;;;;;;5024194;28;20192;-75
2022/10/06 03:18:48;;;;;;;3.53;1.25;;;13.70;99.90;;;;;;5017626;28;20251;-74
2022/10/06 03:21:17;;;;;;;5.15;1.40;;;13.70;99.90;;;;;;5028815;28;20196;-74
2022/10/06 03:23:45;;;;;;;3.97;1.67;;;13.70;99.90;;;;;;5021573;28;20629;-75
2022/10/06 03:26:13;;;;;;;6.38;2.20;;;13.60;99.90;;;;;;5027636;28;20230;-75
2022/10/06 03:28:41;;;;;;;8.88;1.50;;;13.60;99.90;;;;;;5022555;28;20237;-76
2022/10/06 03:31:08;;;;;;;5.00;1.45;;;13.60;99.90;;;;;;5019032;28;20208;-73
2022/10/06 03:33:35;;;;;;;8.43;1.38;;;13.60;99.90;;;;;;5015919;28;20236;-76
2022/10/06 03:36:04;;;;;;;6.20;1.70;;;13.60;99.90;;;;;;5006477;28;20297;-75
2022/10/06 03:38:33;;;;;;;8.73;2.55;;;13.60;99.90;;;;;;5020143;28;20223;-74
2022/10/06 03:41:05;;;;;;;14.05;3.33;;;13.50;99.90;;;;;;5016559;28;20247;-75
2022/10/06 03:43:32;;;;;;;6.93;1.38;;;13.50;99.90;;;;;;5025122;28;20215;-75
2022/10/06 03:46:00;;;;;;;4.95;1.98;;;13.50;99.90;;;;;;5017034;28;20212;-76
2022/10/06 03:48:30;;;;;;;4.70;1.75;;;13.50;99.90;;;;;;5019924;28;20687;-76
2022/10/06 03:50:58;;;;;;;6.13;1.83;;;13.50;99.90;;;;;;5022123;28;20292;-74
2022/10/06 03:53:27;;;;;;;5.18;1.83;;;13.50;99.90;;;;;;5011234;28;20220;-75
2022/10/06 03:56:03;;;;;;;6.10;3.33;;;13.40;99.90;;;;;;5027978;28;20215;-76
2022/10/06 03:58:31;;;;;;;10.23;2.45;;;13.50;99.90;;;;;;5016067;28;20313;-74
2022/10/06 04:01:02;;;;;;;5.78;2.05;;;13.40;99.90;;;;;;5011434;28;20592;-73
2022/10/06 04:03:37;;;;;;;8.80;1.90;;;13.40;99.90;;;;;;5008753;28;20545;-74
2022/10/06 04:06:07;;;;;;;7.00;2.47;;;13.40;99.90;;;;;;5024015;28;20230;-74
2022/10/06 04:08:35;;;;;;;9.18;1.40;;;13.40;99.90;;;;;;5026465;28;20225;-73
2022/10/06 04:11:08;;;;;;;6.03;1.60;;;13.40;99.90;;;;;;5014250;28;20235;-75
2022/10/06 04:13:36;;;;;;;9.00;2.78;;;13.40;99.90;;;;;;5023558;28;20266;-75
2022/10/06 04:16:15;;;;;;;8.88;2.58;;;13.30;99.90;;;;;;5023473;28;20204;-75
2022/10/06 04:18:43;;;;;;;20.27;1.92;;;13.30;99.90;;;;;;5027198;28;20243;-73
2022/10/06 04:21:12;;;;;;;7.22;2.03;;;13.30;99.90;;;;;;5010857;28;20224;-74
2022/10/06 04:23:39;;;;;;;6.30;2.72;;;13.30;99.90;;;;;;5009174;28;20286;-73
2022/10/06 04:26:10;;;;;;;8.88;1.67;;;13.30;99.90;;;;;;5020718;28;20315;-74
2022/10/06 04:28:38;;;;;;;5.65;1.92;;;13.20;99.90;;;;;;5035604;28;20304;-72
2022/10/06 04:31:15;;;;;;;5.28;1.50;;;13.20;99.90;;;;;;5019337;28;20193;-74
2022/10/06 04:33:42;;;;;;;6.60;1.90;;;13.20;99.90;;;;;;5022677;28;20198;-74
2022/10/06 04:36:21;;;;;;;4.60;2.08;;;13.20;99.90;;;;;;5023631;28;20209;-73
2022/10/06 04:38:48;;;;;;;3.45;1.80;;;13.20;99.90;;;;;;5008052;28;20267;-73
2022/10/06 04:41:19;;;;;;;7.05;1.85;;;13.10;99.90;;;;;;5002886;28;20280;-76
2022/10/06 04:43:47;;;;;;;9.20;1.45;;;13.10;99.90;;;;;;5024627;28;20698;-76
2022/10/06 04:46:15;;;;;;;7.55;2.50;;;13.10;99.90;;;;;;5019535;28;20203;-73
2022/10/06 04:48:43;;;;;;;5.65;1.85;;;13.10;99.90;;;;;;5028480;28;20221;-73
2022/10/06 04:51:13;;;;;;;14.55;2.38;;;13.10;99.90;;;;;;5015931;28;20567;-74
2022/10/06 04:53:40;;;;;;;5.85;1.90;;;13.10;99.90;;;;;;5012169;28;20205;-75
2022/10/06 04:56:11;;;;;;;5.43;1.65;;;13.00;99.90;;;;;;5024650;28;20234;-74
2022/10/06 04:58:42;;;;;;;7.85;1.90;;;13.00;99.90;;;;;;5024137;28;20256;-76
2022/10/06 05:01:13;;;;;;;7.55;1.55;;;13.00;99.90;;;;;;5028880;28;20207;-76
2022/10/06 05:03:40;;;;;;;9.27;2.75;;;13.00;99.90;;;;;;5039242;28;20238;-72
2022/10/06 05:06:10;;;;;;;13.52;2.40;;;13.00;99.90;;;;;;5016013;28;20209;-75
2022/10/06 05:08:38;;;;;;;8.82;1.98;;;13.00;99.90;;;;;;5017659;28;20315;-75
2022/10/06 05:11:08;;;;;;;10.00;2.55;;;13.00;99.90;;;;;;5020526;28;20309;-76
2022/10/06 05:13:37;;;;;;;10.25;2.05;;;12.90;99.90;;;;;;5015183;28;20259;-76
2022/10/06 05:16:07;;;;;;;6.15;2.08;;;12.90;99.90;;;;;;5024414;28;20656;-74
2022/10/06 05:18:36;;;;;;;9.80;2.28;;;12.90;99.90;;;;;;5026705;28;20730;-73
2022/10/06 05:21:05;;;;;;;6.82;2.13;;;12.90;99.90;;;;;;5018058;28;20226;-76
2022/10/06 05:23:34;;;;;;;6.45;2.28;;;12.80;99.90;;;;;;5024331;28;20579;-76
2022/10/06 05:26:01;;;;;;;7.00;1.65;;;12.80;99.90;;;;;;5026183;28;20280;-77
2022/10/06 05:28:30;;;;;;;16.08;2.85;;;12.80;99.90;;;;;;5025069;28;20233;-75
2022/10/06 05:31:00;;;;;;;24.52;3.65;;;12.80;99.90;;;;;;5025290;28;20258;-75
2022/10/06 05:33:30;;;;;;;14.55;2.63;;;12.80;99.90;;;;;;5017264;28;20294;-76
2022/10/06 05:35:58;;;;;;;22.27;3.53;;;12.80;99.90;;;;;;5015006;28;20634;-75
2022/10/06 05:38:27;;;;;;;38.08;6.72;;;12.80;99.90;;;;;;5015959;28;20252;-77
2022/10/06 05:41:01;;;;;;;14.25;3.30;;;12.80;99.90;;;;;;5014447;28;20208;-76
2022/10/06 05:43:29;;;;;;;16.48;3.40;;;12.80;99.90;;;;;;5021576;28;20230;-76
2022/10/06 05:45:58;;;;;;;9.65;3.10;;;12.80;99.90;;;;;;5005848;28;20208;-75
2022/10/06 05:48:26;;;;;;;20.08;4.32;;;12.80;99.90;;;;;;5028580;28;20613;-75
2022/10/06 05:51:00;;;;;;;12.63;2.65;;;12.90;99.90;;;;;;5015395;28;20607;-75
2022/10/06 05:53:27;;;;;;;11.85;3.30;;;12.80;99.90;;;;;;5009696;28;20250;-74
2022/10/06 05:56:03;;;;;;;11.13;2.83;;;12.80;99.90;;;;;;5022885;28;20205;-76
2022/10/06 05:58:30;;;;;;;14.48;3.90;;;12.80;99.90;;;;;;5005596;28;20267;-76
2022/10/06 06:01:07;;;;;;;14.20;2.85;;;12.80;99.90;;;;;;5024778;28;20263;-75
2022/10/06 06:03:34;;;;;;;10.45;1.95;;;12.80;99.90;;;;;;5014850;28;20286;-74
2022/10/06 06:06:03;;;;;;;13.23;2.63;;;12.90;99.90;;;;;;5018516;28;20207;-74
2022/10/06 06:08:30;;;;;;;14.77;3.42;;;12.90;99.90;;;;;;5017425;28;20266;-73
2022/10/06 06:11:06;;;;;;;12.95;3.30;;;12.90;99.90;;;;;;5026504;28;20687;-77
2022/10/06 06:13:33;;;;;;;4.03;1.80;;;13.00;99.90;;;;;;5021515;28;20208;-76
2022/10/06 06:15:59;;;;;;;17.83;4.10;;;13.00;99.90;;;;;;5017711;28;20197;-77
2022/10/06 06:18:26;;;;;;;7.13;2.80;;;13.10;99.90;;;;;;5029396;28;20291;-74
2022/10/06 06:20:57;;;;;;;9.55;2.40;;;13.10;99.90;;;;;;5009466;28;20503;-75
2022/10/06 06:23:25;;;;;;;16.67;5.78;;;13.20;99.90;;;;;;5018733;28;20215;-74
2022/10/06 06:26:02;;;;;;;10.43;4.25;;;13.30;99.90;;;;;;5028671;28;20223;-76
2022/10/06 06:28:30;;;;;;;8.65;3.63;;;13.30;99.90;;;;;;5016336;28;20703;-75
2022/10/06 06:31:08;;;;;;;14.23;4.03;;;13.40;99.90;;;;;;5021752;28;20303;-77
2022/10/06 06:33:36;;;;;;;11.55;2.90;;;13.50;99.90;;;;;;5020936;28;20250;-75
2022/10/06 06:36:12;;;;;;;11.52;2.30;;;13.60;99.90;;;;;;5012885;28;20284;-73
2022/10/06 06:38:41;;;;;;;9.65;1.65;;;14.10;99.90;;;;;;5018039;28;20219;-76
2022/10/06 06:41:14;;;;;;;10.07;3.33;;;14.80;99.90;;;;;;5008035;28;20290;-77
2022/10/06 06:43:41;;;;;;;7.63;3.10;;;15.50;99.90;;;;;;5000112;28;20240;-77
2022/10/06 06:46:08;;;;;;;7.80;2.77;;;16.20;99.90;;;;;;5025302;28;20975;-75
2022/10/06 06:48:36;;;;;;;8.43;2.53;;;16.80;99.90;;;;;;5029019;28;20492;-74
2022/10/06 06:51:04;;;;;;;12.30;1.67;;;17.30;99.90;;;;;;5036620;28;20453;-74
2022/10/06 06:53:32;;;;;;;8.63;3.13;;;17.50;99.90;;;;;;5027148;28;20480;-77
2022/10/06 06:56:01;;;;;;;17.10;3.70;;;17.80;99.90;;;;;;5013463;28;20484;-73
2022/10/06 06:58:28;;;;;;;9.03;2.13;;;18.10;99.90;;;;;;5020765;28;20546;-77
2022/10/06 07:00:54;;;;;;;10.23;4.70;;;18.20;99.90;;;;;;5009607;28;20875;-77
2022/10/06 07:03:22;;;;;;;10.30;2.23;;;18.70;99.90;;;;;;5025029;28;20478;-77
2022/10/06 07:06:11;;;;;;;8.03;2.77;;;19.30;99.90;;;;;;5019892;28;20463;-77
2022/10/06 07:08:42;;;;;;;10.67;2.10;;;19.50;99.00;;;;;;5013298;28;20486;-78
2022/10/06 07:11:16;;;;;;;7.30;2.17;;;19.30;98.20;;;;;;5013862;28;20451;-78
2022/10/06 07:13:43;;;;;;;7.40;2.10;;;19.30;98.50;;;;;;5034339;28;20452;-76
2022/10/06 07:25:13;;;;;;;11.87;3.27;;;19.50;96.70;;;;;;5016055;28;20415;-81
2022/10/06 07:27:44;;;;;;;10.57;2.30;;;19.90;96.80;;;;;;5011864;28;20855;-79
2022/10/06 07:30:13;;;;;;;11.00;3.30;;;20.30;95.50;;;;;;5015793;28;20538;-79
2022/10/06 07:32:40;;;;;;;12.93;2.10;;;20.60;95.30;;;;;;5011225;28;20441;-74
2022/10/06 07:35:08;;;;;;;6.43;2.00;;;20.90;94.20;;;;;;5014250;28;20450;-76
2022/10/06 07:37:35;;;;;;;6.13;1.93;;;21.40;93.20;;;;;;5016018;28;20883;-78
2022/10/06 07:40:04;;;;;;;9.80;1.83;;;21.50;92.70;;;;;;5007977;28;20525;-79
2022/10/06 07:42:46;;;;;;;7.83;1.90;;;21.80;92.20;;;;;;5018677;28;20820;-81
2022/10/06 07:48:00;;;;;;;6.70;2.07;;;21.40;91.90;;;;;;5010490;28;20476;-76
2022/10/06 07:50:28;;;;;;;11.03;2.83;;;20.90;92.70;;;;;;5017653;28;20479;-80
2022/10/06 07:52:55;;;;;;;9.87;2.47;;;21.30;93.10;;;;;;5016293;28;20482;-78
2022/10/06 07:55:22;;;;;;;11.60;2.13;;;21.50;92.10;;;;;;5022541;28;20539;-79
2022/10/06 07:57:50;;;;;;;5.50;2.00;;;21.70;91.90;;;;;;5019379;28;20513;-79
2022/10/06 08:00:21;;;;;;;8.90;2.30;;;21.30;91.60;;;;;;5008572;28;20449;-77
2022/10/06 08:02:48;;;;;;;6.97;2.27;;;21.50;92.40;;;;;;5029118;28;20443;-79
2022/10/06 08:05:15;;;;;;;10.43;2.53;;;21.70;91.70;;;;;;5030629;28;20432;-76
2022/10/06 08:07:42;;;;;;;9.20;2.03;;;22.00;91.20;;;;;;5029860;28;20489;-77
2022/10/06 08:10:09;;;;;;;13.50;2.20;;;22.40;91.10;;;;;;5018061;28;20467;-77
2022/10/06 08:12:38;;;;;;;5.93;2.40;;;22.00;90.50;;;;;;5010389;28;20448;-75
2022/10/06 08:15:07;;;;;;;9.20;2.10;;;22.10;90.80;;;;;;5017958;28;20452;-74
2022/10/06 08:17:36;;;;;;;6.57;2.27;;;21.90;90.80;;;;;;5021891;28;20543;-77
2022/10/06 08:20:03;;;;;;;11.57;2.07;;;22.40;90.70;;;;;;5028597;28;20976;-77
2022/10/06 08:22:30;;;;;;;7.10;2.10;;;23.30;89.50;;;;;;5016937;28;20487;-78
2022/10/06 08:24:58;;;;;;;5.87;2.23;;;23.10;87.90;;;;;;5030166;28;20439;-77
2022/10/06 08:27:26;;;;;;;14.67;2.07;;;22.90;88.40;;;;;;5009038;28;20497;-79
2022/10/06 08:29:54;;;;;;;12.90;2.93;;;23.20;87.50;;;;;;5027605;28;20545;-80
2022/10/06 08:32:22;;;;;;;12.47;2.30;;;23.20;88.40;;;;;;5025818;28;20459;-80
2022/10/06 08:34:50;;;;;;;5.50;1.83;;;23.10;87.20;;;;;;5012323;28;20451;-77
2022/10/06 08:37:22;;;;;;;6.07;1.70;;;22.60;87.20;;;;;;5029486;28;20591;-78
2022/10/06 08:39:50;;;;;;;8.90;1.90;;;23.00;88.10;;;;;;5013587;28;20463;-79
2022/10/06 08:42:25;;;;;;;8.67;2.90;;;23.20;86.90;;;;;;5029743;28;20442;-76
2022/10/06 08:44:59;;;;;;;11.93;3.80;;;23.20;87.50;;;;;;5011584;28;20755;-75
2022/10/06 08:47:29;;;;;;;5.87;2.10;;;23.60;86.30;;;;;;5017342;28;20484;-75
2022/10/06 08:49:57;;;;;;;9.10;2.30;;;24.10;85.80;;;;;;5017014;28;20739;-79
2022/10/06 08:52:35;;;;;;;12.40;2.30;;;24.20;84.50;;;;;;5017484;28;20506;-76
2022/10/06 08:55:14;;;;;;;8.80;2.10;;;24.70;83.80;;;;;;5028969;28;20462;-78
2022/10/06 08:57:48;;;;;;;8.27;2.03;;;23.70;83.10;;;;;;5007624;28;20514;-76
2022/10/06 09:00:17;;;;;;;7.40;2.10;;;23.30;84.80;;;;;;5026260;28;20555;-77
2022/10/06 09:02:46;;;;;;;5.53;1.60;;;23.00;85.70;;;;;;5023758;28;20447;-76
2022/10/06 09:05:24;;;;;;;6.80;1.97;;;22.70;85.70;;;;;;5022645;28;20474;-80
2022/10/06 09:08:05;;;;;;;7.30;2.30;;;22.40;86.70;;;;;;5010875;28;20498;-77
2022/10/06 09:10:43;;;;;;;9.40;1.93;;;21.90;86.80;;;;;;5022747;28;20502;-78
2022/10/06 09:13:16;;;;;;;7.20;1.73;;;21.30;88.50;;;;;;5020499;28;20494;-79
2022/10/06 09:15:47;;;;;;;9.83;3.10;;;21.90;90.00;;;;;;5025932;28;20458;-78
2022/10/06 09:18:21;;;;;;;7.57;2.10;;;21.90;89.70;;;;;;5029928;28;20958;-78
2022/10/06 09:20:58;;;;;;;6.60;2.43;;;22.10;89.00;;;;;;5020604;28;20887;-77
2022/10/06 09:26:14;;;;;;;12.73;2.57;;;22.60;88.20;;;;;;5029650;28;20508;-77
2022/10/06 09:28:44;;;;;;;6.73;2.10;;;22.80;87.70;;;;;;5025066;28;20505;-79
2022/10/06 09:31:21;;;;;;;11.27;2.83;;;23.20;86.60;;;;;;5028891;28;20462;-79
2022/10/06 09:33:50;;;;;;;7.33;2.00;;;23.70;84.90;;;;;;5004691;28;20447;-77
2022/10/06 09:36:18;;;;;;;11.03;2.03;;;23.30;85.30;;;;;;5010685;28;20462;-78
2022/10/06 09:38:48;;;;;;;9.13;2.17;;;23.80;85.50;;;;;;5023937;28;20558;-76
2022/10/06 09:41:15;;;;;;;5.90;2.20;;;23.50;84.50;;;;;;5017813;28;20529;-78
2022/10/06 09:43:52;;;;;;;4.90;1.97;;;23.60;85.60;;;;;;5022591;28;20574;-78
2022/10/06 09:46:21;;;;;;;9.23;2.30;;;23.10;84.60;;;;;;5020767;28;20453;-78
2022/10/06 09:48:48;;;;;;;11.40;2.20;;;21.80;87.50;;;;;;5004225;28;20487;-79
2022/10/06 09:51:17;;;;;;;5.20;2.23;;;21.00;88.80;;;;;;5014556;28;20591;-77
2022/10/06 09:54:09;;;;;;;10.43;2.80;;;20.70;90.20;;;;;;5022540;28;20653;-77
2022/10/06 09:56:40;;;;;;;7.30;3.37;;;19.70;91.20;;;;;;5024637;28;20577;-79
2022/10/06 09:59:19;;;;;;;13.90;2.37;;;19.20;92.40;;;;;;5033888;28;20497;-73
2022/10/06 10:01:52;;;;;;;6.10;2.30;;;18.60;92.70;;;;;;5025262;28;20439;-76
2022/10/06 10:04:25;;;;;;;11.23;2.70;;;18.90;93.80;;;;;;5036943;28;20439;-75
2022/10/06 10:06:52;;;;;;;7.83;2.10;;;19.70;92.80;;;;;;5029067;28;20435;-75
2022/10/06 10:09:29;;;;;;;5.57;2.50;;;20.60;91.60;;;;;;5042852;28;20469;-78
2022/10/06 10:12:26;;;;;;;9.70;3.17;;;21.10;90.50;;;;;;5008877;28;20933;-79
2022/10/06 10:14:56;;;;;;;9.40;5.10;;;22.10;89.30;;;;;;5006634;28;20456;-77
2022/10/06 10:17:44;;;;;;;6.87;2.07;;;22.90;86.70;;;;;;5024974;28;20456;-78
2022/10/06 10:20:32;;;;;;;3.67;1.40;;;23.20;85.30;;;;;;5018166;28;20531;-77
2022/10/06 10:23:03;;;;;;;10.83;2.10;;;22.40;85.20;;;;;;5018027;28;20847;-79
2022/10/06 10:25:49;;;;;;;8.00;2.40;;;22.40;84.40;;;;;;5025955;28;20918;-77
2022/10/06 10:28:26;;;;;;;5.53;1.70;;;22.40;84.80;;;;;;5032208;28;20517;-76
2022/10/06 10:31:00;;;;;;;11.03;3.23;;;22.20;84.60;;;;;;5026512;28;20573;-78
2022/10/06 10:33:38;;;;;;;5.40;1.80;;;22.20;85.30;;;;;;5022741;28;20824;-77
2022/10/06 10:36:09;;;;;;;5.03;1.60;;;21.40;87.00;;;;;;5012321;28;20454;-77
2022/10/06 10:38:39;;;;;;;7.17;2.20;;;21.00;87.70;;;;;;5021646;28;20888;-74
2022/10/06 10:41:13;;;;;;;7.33;2.33;;;20.70;88.80;;;;;;5024848;28;20547;-75
2022/10/06 10:43:48;;;;;;;13.23;2.07;;;20.10;89.80;;;;;;5020279;28;20923;-76
2022/10/06 10:46:21;;;;;;;10.20;3.00;;;20.10;90.00;;;;;;5011822;28;20460;-78
2022/10/06 10:48:53;;;;;;;15.53;3.50;;;20.10;89.80;;;;;;5015846;28;20475;-79
2022/10/06 10:51:24;;;;;;;7.83;1.97;;;20.10;90.20;;;;;;5018370;28;20540;-77
2022/10/06 10:53:59;;;;;;;8.33;1.67;;;20.30;89.80;;;;;;5011196;28;20467;-79
2022/10/06 10:56:29;;;;;;;7.70;1.90;;;19.70;88.90;;;;;;5016280;28;20447;-77
2022/10/06 10:59:03;;;;;;;5.07;1.40;;;19.70;90.00;;;;;;5018360;28;20546;-79
2022/10/06 11:01:36;;;;;;;6.93;1.63;;;19.80;90.10;;;;;;5016132;28;20495;-78
2022/10/06 11:04:03;;;;;;;11.20;1.70;;;19.90;90.20;;;;;;5014512;28;20430;-79
2022/10/06 11:06:53;;;;;;;5.50;1.67;;;19.90;89.30;;;;;;5012141;28;20456;-77
2022/10/06 11:09:25;;;;;;;5.57;1.80;;;19.40;90.10;;;;;;5015530;28;20481;-78
2022/10/06 11:12:08;;;;;;;6.20;2.60;;;19.20;90.90;;;;;;5013119;28;20810;-80
2022/10/06 11:14:53;;;;;;;5.73;1.63;;;18.80;91.80;;;;;;5024388;28;20432;-77
2022/10/06 11:17:43;;;;;;;6.90;1.70;;;18.50;91.80;;;;;;5006324;28;20480;-78
2022/10/06 11:20:38;;;;;;;5.97;1.53;;;18.50;92.10;;;;;;5016418;28;20443;-78
2022/10/06 11:23:23;;;;;;;6.93;1.70;;;18.80;91.90;;;;;;5014317;28;20482;-78
2022/10/06 11:26:00;;;;;;;5.33;2.10;;;19.00;91.80;;;;;;5013439;28;20526;-78
2022/10/06 11:28:39;;;;;;;8.57;1.80;;;18.80;91.10;;;;;;5026750;28;20484;-78
2022/10/06 11:37:28;;;;;;;8.57;2.27;;;18.60;92.10;;;;;;5013716;28;20831;-80
2022/10/06 11:40:03;;;;;;;8.97;2.23;;;18.80;92.00;;;;;;5013666;28;20472;-78
2022/10/06 11:42:39;;;;;;;8.40;2.97;;;18.80;91.40;;;;;;5020269;28;20476;-77
2022/10/06 11:45:13;;;;;;;6.17;2.77;;;18.90;91.60;;;;;;5028215;28;20481;-75
2022/10/06 11:47:59;;;;;;;9.60;2.80;;;18.70;91.00;;;;;;5021357;28;20464;-80
2022/10/06 11:50:34;;;;;;;6.77;1.90;;;18.70;91.10;;;;;;5029156;28;20530;-76
2022/10/06 11:53:01;;;;;;;8.93;3.13;;;18.40;90.80;;;;;;5024453;28;20946;-81
2022/10/06 11:55:30;;;;;;;5.27;1.70;;;18.40;91.10;;;;;;5021836;28;20821;-75
2022/10/06 11:58:12;;;;;;;4.77;2.00;;;18.30;91.10;;;;;;5024785;28;20479;-78
2022/10/06 12:00:43;;;;;;;10.73;2.47;;;18.20;91.10;;;;;;5024972;28;20451;-76
2022/10/06 12:03:55;;;;;;;15.57;6.23;;;18.10;91.10;;;;;;5015659;28;20444;-78
2022/10/06 12:07:09;;;;;;;5.87;1.47;;;18.20;91.40;;;;;;5019641;28;20460;-77
2022/10/06 12:10:13;;;;;;;9.50;1.60;;;18.20;91.50;;;;;;5027308;28;20493;-76
2022/10/06 12:12:55;;;;;;;6.73;2.50;;;18.00;91.50;;;;;;5030093;28;20447;-78
2022/10/06 12:15:59;;;;;;;5.80;1.40;;;18.00;91.50;;;;;;5017012;28;20456;-78
2022/10/06 12:18:42;;;;;;;7.67;1.83;;;18.00;91.40;;;;;;4994066;28;20476;-79
2022/10/06 12:21:31;;;;;;;3.40;1.77;;;18.00;92.00;;;;;;5012686;28;20828;-77
2022/10/06 12:24:17;;;;;;;7.67;2.50;;;18.10;91.80;;;;;;5032286;28;20440;-74
2022/10/06 12:29:47;;;;;;;8.53;2.03;;;17.90;91.30;;;;;;5018988;28;20487;-79
2022/10/06 12:32:38;;;;;;;4.70;1.80;;;18.00;91.40;;;;;;5006107;28;20740;-78
2022/10/06 12:35:18;;;;;;;5.63;1.10;;;18.20;91.50;;;;;;5015067;28;20463;-79
2022/10/06 12:37:52;;;;;;;3.47;1.43;;;18.30;91.80;;;;;;5024999;28;20494;-78
2022/10/06 12:40:48;;;;;;;5.90;1.87;;;18.40;91.40;;;;;;5029701;28;20665;-75
2022/10/06 12:43:52;;;;;;;6.33;1.47;;;18.50;91.00;;;;;;5005489;28;20887;-76
2022/10/06 12:46:29;;;;;;;6.23;1.60;;;18.50;90.00;;;;;;5019753;28;20460;-76
2022/10/06 12:49:04;;;;;;;6.90;1.53;;;18.60;90.20;;;;;;5006595;28;20997;-76
2022/10/06 12:51:37;;;;;;;6.23;1.63;;;18.60;90.40;;;;;;5025106;28;20505;-80
2022/10/06 12:54:16;;;;;;;3.50;1.30;;;18.30;90.90;;;;;;5019963;28;20925;-77
2022/10/06 12:56:43;;;;;;;5.63;2.27;;;18.30;91.40;;;;;;5010179;28;20523;-78
2022/10/06 12:59:19;;;;;;;4.10;1.40;;;18.40;91.70;;;;;;5026927;28;20489;-74
2022/10/06 13:01:47;;;;;;;6.27;1.73;;;18.50;91.20;;;;;;5018767;28;20448;-76
2022/10/06 13:04:29;;;;;;;8.57;1.40;;;18.50;90.70;;;;;;5029044;28;20489;-76
2022/10/06 13:06:58;;;;;;;4.60;1.67;;;18.20;90.50;;;;;;5022267;28;20458;-75
2022/10/06 13:09:25;;;;;;;4.20;1.50;;;18.30;90.40;;;;;;5032112;28;20498;-78
2022/10/06 13:11:52;;;;;;;3.90;1.30;;;18.30;90.00;;;;;;5025963;28;20531;-77
2022/10/06 13:14:20;;;;;;;5.87;1.30;;;18.30;90.10;;;;;;5038944;28;20502;-77
2022/10/06 13:16:48;;;;;;;4.77;1.40;;;18.30;90.30;;;;;;5030959;28;20448;-78
2022/10/06 13:19:18;;;;;;;4.30;1.43;;;18.40;90.10;;;;;;5023914;28;20487;-76
2022/10/06 13:21:46;;;;;;;3.40;1.30;;;18.30;89.60;;;;;;5008467;28;20530;-77
2022/10/06 13:24:22;;;;;;;4.83;1.50;;;18.20;89.80;;;;;;5022522;28;20443;-76
2022/10/06 13:26:49;;;;;;;3.73;1.23;;;18.20;90.30;;;;;;5010294;28;20954;-79
2022/10/06 13:29:20;;;;;;;4.60;1.20;;;18.20;90.60;;;;;;5028764;28;20483;-78
2022/10/06 13:31:48;;;;;;;6.17;2.13;;;18.20;90.80;;;;;;5020447;28;20446;-78
2022/10/06 13:34:16;;;;;;;8.10;2.20;;;18.30;91.10;;;;;;5014469;28;20518;-77
2022/10/06 13:36:47;;;;;;;4.80;1.60;;;18.10;90.80;;;;;;5031579;28;20481;-77